Time;durP1;ratioP1;P1;durP2;ratioP2;P2;SDS_P1;SDS_P2;PMS_P1;PMS_P2;Temp;Humidity;BMP_temperature;BMP_pressure;BME280_temperature;BME280_humidity;BME280_pressure;Samples;Min_cycle;Max_cycle;Signal;HPM_P1;HPM_P2
2022/06/10 00:02:10;;;;;;;21.23;12.85;;;19.30;99.90;;;;;;6168054;23;20168;-89
2022/06/10 00:04:36;;;;;;;22.20;13.15;;;19.20;99.90;;;;;;6192740;23;20262;-89
2022/06/10 00:07:02;;;;;;;24.10;14.05;;;19.20;99.90;;;;;;6218557;23;20567;-88
2022/06/10 00:09:27;;;;;;;24.45;14.05;;;19.10;99.90;;;;;;6192726;23;20164;-89
2022/06/10 00:11:53;;;;;;;20.83;12.43;;;19.10;99.90;;;;;;6193916;23;20152;-90
2022/06/10 00:14:19;;;;;;;22.48;12.82;;;19.00;99.90;;;;;;6170059;23;20171;-89
2022/06/10 00:16:44;;;;;;;21.83;13.15;;;19.00;99.90;;;;;;6223525;23;20202;-89
2022/06/10 00:19:10;;;;;;;22.33;12.55;;;19.00;99.90;;;;;;6197352;23;20187;-89
2022/06/10 00:21:35;;;;;;;26.25;12.85;;;19.00;99.90;;;;;;6175478;23;20160;-89
2022/06/10 00:24:01;;;;;;;18.33;11.73;;;19.00;99.90;;;;;;6202015;23;20163;-89
2022/06/10 00:26:28;;;;;;;20.73;12.25;;;19.00;99.90;;;;;;6177035;23;20591;-88
2022/06/10 00:28:54;;;;;;;19.42;12.15;;;19.00;99.90;;;;;;6200273;23;20182;-90
2022/06/10 00:31:19;;;;;;;24.77;13.18;;;19.00;99.90;;;;;;6199100;23;20187;-89
2022/06/10 00:33:45;;;;;;;21.45;12.90;;;19.00;99.90;;;;;;6199153;23;20186;-89
2022/06/10 00:36:11;;;;;;;23.63;13.75;;;19.00;99.90;;;;;;6175915;23;20164;-89
2022/06/10 00:38:36;;;;;;;26.33;12.52;;;19.00;99.90;;;;;;6201089;23;20159;-88
2022/06/10 00:41:03;;;;;;;21.80;12.25;;;19.00;99.90;;;;;;6199244;23;20586;-88
2022/06/10 00:43:33;;;;;;;22.30;12.93;;;19.00;99.90;;;;;;6200291;23;20155;-88
2022/06/10 00:46:32;;;;;;;23.65;11.98;;;19.00;99.90;;;;;;6227807;23;20222;-89
2022/06/10 00:49:07;;;;;;;19.27;12.00;;;19.00;99.90;;;;;;6226858;23;20167;-90
2022/06/10 00:51:46;;;;;;;22.13;13.20;;;18.90;99.90;;;;;;6227011;23;20183;-88
2022/06/10 00:54:21;;;;;;;23.10;13.82;;;18.80;99.90;;;;;;6226455;23;20144;-89
2022/06/10 00:57:13;;;;;;;20.73;13.18;;;18.80;99.90;;;;;;6226260;23;20139;-89
2022/06/10 00:59:42;;;;;;;19.33;13.35;;;18.70;99.90;;;;;;6186057;23;20155;-89
2022/06/10 01:02:18;;;;;;;23.52;13.18;;;18.70;99.90;;;;;;6197202;23;20156;-89
2022/06/10 01:04:44;;;;;;;20.23;12.65;;;18.70;99.90;;;;;;6224457;23;20175;-89
2022/06/10 01:07:14;;;;;;;20.30;12.55;;;18.60;99.90;;;;;;6226169;23;20148;-89
2022/06/10 01:09:40;;;;;;;23.90;13.43;;;18.70;99.90;;;;;;6224968;23;20548;-90
2022/06/10 01:12:22;;;;;;;20.50;12.48;;;18.70;99.90;;;;;;6198518;23;20215;-90
2022/06/10 01:14:48;;;;;;;22.65;12.48;;;18.60;99.90;;;;;;6223847;23;20195;-88
2022/06/10 01:17:36;;;;;;;20.23;13.40;;;18.50;99.90;;;;;;6224445;23;20481;-89
2022/06/10 01:20:15;;;;;;;22.13;12.90;;;18.50;99.90;;;;;;6225521;23;20143;-90
2022/06/10 01:22:53;;;;;;;22.67;12.18;;;18.50;99.90;;;;;;6224725;23;20162;-89
2022/06/10 01:25:37;;;;;;;20.98;12.80;;;18.50;99.90;;;;;;6195727;23;20187;-88
2022/06/10 01:28:32;;;;;;;18.27;12.82;;;18.50;99.90;;;;;;6223561;23;20214;-89
2022/06/10 01:31:08;;;;;;;19.65;12.65;;;18.40;99.90;;;;;;6223469;23;20151;-89
2022/06/10 01:33:56;;;;;;;20.27;12.60;;;18.40;99.90;;;;;;6198041;23;20155;-88
2022/06/10 01:36:39;;;;;;;21.42;12.25;;;18.40;99.90;;;;;;6198576;23;20166;-89
2022/06/10 01:39:19;;;;;;;21.90;13.13;;;18.40;99.90;;;;;;6197819;23;20518;-90
2022/06/10 01:42:19;;;;;;;26.33;13.48;;;18.40;99.90;;;;;;6198003;23;20155;-89
2022/06/10 01:45:00;;;;;;;19.10;12.23;;;18.40;99.90;;;;;;6193118;23;20282;-90
2022/06/10 01:47:35;;;;;;;18.38;11.07;;;18.30;99.90;;;;;;6200486;23;20151;-90
2022/06/10 01:50:17;;;;;;;22.67;12.88;;;18.30;99.90;;;;;;6231510;23;20147;-90
2022/06/10 01:52:51;;;;;;;20.55;13.48;;;18.30;99.90;;;;;;6203632;23;20164;-90
2022/06/10 01:55:31;;;;;;;23.25;13.43;;;18.20;99.90;;;;;;6228142;23;20585;-89
2022/06/10 01:57:59;;;;;;;27.15;13.20;;;18.20;99.90;;;;;;6201531;23;20172;-89
2022/06/10 02:00:30;;;;;;;19.17;12.18;;;18.10;99.90;;;;;;6228920;23;20163;-88
2022/06/10 02:03:17;;;;;;;23.50;12.07;;;18.10;99.90;;;;;;6231662;23;20132;-88
2022/06/10 02:05:51;;;;;;;20.50;13.32;;;18.10;99.90;;;;;;6230766;23;20187;-89
2022/06/10 02:08:27;;;;;;;21.88;13.40;;;18.00;99.90;;;;;;6225150;23;20152;-88
2022/06/10 02:11:15;;;;;;;22.33;13.10;;;18.00;99.90;;;;;;6196052;23;20210;-88
2022/06/10 02:13:51;;;;;;;20.85;13.05;;;18.00;99.90;;;;;;6196801;23;20168;-88
2022/06/10 02:16:21;;;;;;;23.92;13.85;;;18.00;99.90;;;;;;6195139;23;20156;-89
2022/06/10 02:19:01;;;;;;;27.00;13.98;;;18.00;99.90;;;;;;6195498;23;20194;-88
2022/06/10 02:21:35;;;;;;;23.60;13.68;;;18.00;99.90;;;;;;6220035;23;20225;-88
2022/06/10 02:24:08;;;;;;;24.10;14.48;;;18.00;99.90;;;;;;6194906;23;20174;-88
2022/06/10 02:26:36;;;;;;;26.45;15.30;;;18.00;99.90;;;;;;6194891;23;20178;-88
2022/06/10 02:29:08;;;;;;;24.70;15.55;;;18.00;99.90;;;;;;6192479;23;20151;-87
2022/06/10 02:31:40;;;;;;;24.90;16.00;;;17.90;99.90;;;;;;6220291;23;20137;-87
2022/06/10 02:34:06;;;;;;;24.33;15.02;;;17.80;99.90;;;;;;6193813;23;20156;-87
2022/06/10 02:36:44;;;;;;;23.75;13.90;;;17.90;99.90;;;;;;6222532;23;20148;-87
2022/06/10 02:39:34;;;;;;;25.05;15.43;;;17.80;99.90;;;;;;6197839;23;20234;-90
2022/06/10 02:42:13;;;;;;;23.38;14.25;;;17.90;99.90;;;;;;6195790;23;20152;-87
2022/06/10 02:44:55;;;;;;;26.52;14.60;;;17.80;99.90;;;;;;6221454;23;20203;-87
2022/06/10 02:47:42;;;;;;;27.63;15.30;;;17.70;99.90;;;;;;6219328;23;20598;-86
2022/06/10 02:50:10;;;;;;;24.45;15.00;;;17.70;99.90;;;;;;6220053;23;20198;-88
2022/06/10 02:52:37;;;;;;;28.10;15.00;;;17.70;99.90;;;;;;6220284;23;20156;-87
2022/06/10 02:55:12;;;;;;;27.35;15.93;;;17.80;99.90;;;;;;6193446;23;20247;-87
2022/06/10 03:03:29;;;;;;;28.05;16.17;;;17.90;99.90;;;;;;6197415;23;20641;-88
2022/06/10 03:06:15;;;;;;;24.33;15.15;;;18.00;99.90;;;;;;6219866;23;20168;-89
2022/06/10 03:08:47;;;;;;;27.67;15.25;;;18.00;99.90;;;;;;6219443;23;20144;-88
2022/06/10 03:11:39;;;;;;;26.02;15.73;;;18.00;99.90;;;;;;6220222;23;20150;-88
2022/06/10 03:14:23;;;;;;;27.55;15.68;;;18.10;99.90;;;;;;6218559;23;20132;-88
2022/06/10 03:17:12;;;;;;;26.88;14.38;;;18.10;99.90;;;;;;6215610;23;20248;-88
2022/06/10 03:19:49;;;;;;;28.75;16.33;;;18.10;99.90;;;;;;6190394;23;20166;-88
2022/06/10 03:22:40;;;;;;;28.80;15.15;;;18.20;99.90;;;;;;6218246;23;20187;-88
2022/06/10 03:25:24;;;;;;;26.90;15.55;;;18.20;99.90;;;;;;6195845;23;20243;-88
2022/06/10 03:27:54;;;;;;;23.52;14.48;;;18.20;99.90;;;;;;6195333;23;20198;-88
2022/06/10 03:30:25;;;;;;;26.25;15.10;;;18.20;99.90;;;;;;6192194;23;20243;-90
2022/06/10 03:33:08;;;;;;;25.83;15.43;;;18.20;99.90;;;;;;6189485;23;20156;-91
2022/06/10 03:35:56;;;;;;;22.35;13.88;;;18.20;99.90;;;;;;6186487;23;20205;-88
2022/06/10 03:38:22;;;;;;;25.20;14.57;;;18.20;99.90;;;;;;6189343;23;20488;-89
2022/06/10 03:40:58;;;;;;;20.23;12.32;;;18.20;99.90;;;;;;6188891;23;20152;-91
2022/06/10 03:43:25;;;;;;;23.80;12.90;;;18.20;99.90;;;;;;6215283;23;20167;-86
2022/06/10 03:45:57;;;;;;;18.38;11.77;;;18.20;99.90;;;;;;6190608;23;20202;-88
2022/06/10 03:48:25;;;;;;;20.48;12.57;;;18.20;99.90;;;;;;6216687;23;20566;-89
2022/06/10 03:50:51;;;;;;;21.90;12.48;;;18.20;99.90;;;;;;6213453;23;20152;-90
2022/06/10 03:53:22;;;;;;;21.02;12.98;;;18.20;99.90;;;;;;6186701;23;20171;-90
2022/06/10 03:55:48;;;;;;;21.23;12.57;;;18.10;99.90;;;;;;6212716;23;20164;-87
2022/06/10 03:58:13;;;;;;;20.02;11.60;;;18.10;99.90;;;;;;6188139;23;20215;-87
2022/06/10 04:00:39;;;;;;;19.65;12.02;;;18.10;99.90;;;;;;6187955;23;20159;-87
2022/06/10 04:03:05;;;;;;;20.00;12.82;;;18.20;99.90;;;;;;6214411;23;20159;-88
2022/06/10 04:05:31;;;;;;;20.02;11.20;;;18.20;99.90;;;;;;6187512;23;20188;-88
2022/06/10 04:07:57;;;;;;;22.40;11.63;;;18.20;99.90;;;;;;6214811;23;20173;-90
2022/06/10 04:10:25;;;;;;;18.85;11.90;;;18.20;99.90;;;;;;6215799;23;20661;-91
2022/06/10 04:12:51;;;;;;;23.08;12.35;;;18.20;99.90;;;;;;6189960;23;20160;-90
2022/06/10 04:15:17;;;;;;;20.20;12.50;;;18.30;99.90;;;;;;6189342;23;20159;-89
2022/06/10 04:17:48;;;;;;;21.20;11.82;;;18.30;99.90;;;;;;6214746;23;20582;-89
2022/06/10 04:20:26;;;;;;;16.70;10.60;;;18.30;99.90;;;;;;6215852;23;20147;-89
2022/06/10 04:22:51;;;;;;;19.15;11.75;;;18.30;99.90;;;;;;6214498;23;20144;-91
2022/06/10 04:25:18;;;;;;;20.73;11.73;;;18.30;99.90;;;;;;6183046;23;20507;-90
2022/06/10 04:27:44;;;;;;;17.77;10.82;;;18.30;99.90;;;;;;6179878;23;20164;-89
2022/06/10 04:30:24;;;;;;;17.45;11.50;;;18.40;99.90;;;;;;6174192;23;20159;-89
2022/06/10 04:32:50;;;;;;;21.52;12.25;;;18.40;99.90;;;;;;6181122;23;20191;-89
2022/06/10 04:35:16;;;;;;;24.70;11.90;;;18.40;99.90;;;;;;6161796;23;20168;-90
2022/06/10 04:37:44;;;;;;;22.73;12.98;;;18.40;99.90;;;;;;6209530;23;20238;-89
2022/06/10 04:40:13;;;;;;;21.42;12.13;;;18.50;99.90;;;;;;6210613;23;20250;-90
2022/06/10 04:42:39;;;;;;;19.77;12.05;;;18.50;99.90;;;;;;6209970;23;20163;-88
2022/06/10 04:45:05;;;;;;;21.05;11.50;;;18.50;99.90;;;;;;6209627;23;20199;-90
2022/06/10 04:47:30;;;;;;;20.77;11.45;;;18.40;99.90;;;;;;6183114;23;20455;-88
2022/06/10 04:49:59;;;;;;;18.23;11.68;;;18.50;99.90;;;;;;6183342;23;20719;-87
2022/06/10 04:52:27;;;;;;;19.10;11.63;;;18.60;99.90;;;;;;6182918;23;20160;-89
2022/06/10 04:54:53;;;;;;;16.60;11.43;;;18.60;99.90;;;;;;6182939;23;20164;-90
2022/06/10 04:57:20;;;;;;;16.80;10.32;;;18.60;99.90;;;;;;6209716;23;20151;-87
2022/06/10 04:59:46;;;;;;;17.35;10.38;;;18.60;99.90;;;;;;6183263;23;20247;-90
2022/06/10 05:02:12;;;;;;;17.85;11.10;;;18.70;99.90;;;;;;6212896;23;20195;-87
2022/06/10 05:04:37;;;;;;;18.77;10.65;;;18.80;99.90;;;;;;6209667;23;20211;-91
2022/06/10 05:07:03;;;;;;;22.13;12.75;;;18.90;99.90;;;;;;6158714;23;20168;-90
2022/06/10 05:09:31;;;;;;;19.88;11.07;;;;;;;;;;6184400;23;20164;-90
2022/06/10 05:11:57;;;;;;;18.13;11.85;;;18.90;99.90;;;;;;6187325;23;20215;-90
2022/06/10 05:14:23;;;;;;;21.05;12.60;;;;;;;;;;6164182;23;20171;-90
2022/06/10 05:16:49;;;;;;;19.15;11.32;;;19.30;99.90;;;;;;6189199;23;20164;-89
2022/06/10 05:19:15;;;;;;;18.45;10.65;;;;;;;;;;6189445;23;20156;-91
2022/06/10 05:21:41;;;;;;;18.15;10.70;;;19.60;99.90;;;;;;6215362;23;20156;-91
2022/06/10 05:24:06;;;;;;;19.55;11.38;;;19.40;99.90;;;;;;6189272;23;20239;-90
2022/06/10 05:26:33;;;;;;;15.73;9.25;;;19.90;99.90;;;;;;6189017;23;20160;-92
2022/06/10 05:29:00;;;;;;;16.65;10.30;;;19.50;99.90;;;;;;6216463;23;20152;-91
2022/06/10 05:31:25;;;;;;;18.48;10.90;;;19.60;99.90;;;;;;6191415;23;20160;-89
2022/06/10 05:36:36;;;;;;;19.20;11.35;;;19.50;99.90;;;;;;6210724;23;20185;-90
2022/06/10 05:39:03;;;;;;;18.58;11.15;;;19.50;99.90;;;;;;6213780;23;20236;-91
2022/06/10 05:46:43;;;;;;;15.07;9.98;;;;;;;;;;6185918;23;20745;-88
2022/06/10 05:49:12;;;;;;;21.23;11.43;;;;;;;;;;6235676;23;20140;-92
2022/06/10 05:51:38;;;;;;;19.45;11.13;;;;;;;;;;6190868;23;20224;-90
2022/06/10 05:54:07;;;;;;;20.13;10.98;;;19.60;99.90;;;;;;6190432;23;20610;-91
2022/06/10 05:56:33;;;;;;;19.38;11.68;;;;;;;;;;6189148;23;20152;-94
2022/06/10 05:59:02;;;;;;;19.38;10.98;;;19.60;99.90;;;;;;6216335;23;20184;-93
2022/06/10 06:01:28;;;;;;;20.70;11.63;;;;;;;;;;6190782;23;20490;-92
2022/06/10 06:03:56;;;;;;;20.23;11.63;;;;;;;;;;6191109;23;20166;-89
2022/06/10 06:06:24;;;;;;;16.95;10.30;;;19.60;99.90;;;;;;6216851;23;20156;-90
2022/06/10 06:08:50;;;;;;;21.00;12.50;;;;;;;;;;6189598;23;20501;-90
2022/06/10 06:11:17;;;;;;;19.00;11.45;;;20.00;99.90;;;;;;6204510;23;20159;-92
2022/06/10 06:13:43;;;;;;;20.15;11.40;;;;;;;;;;6189622;23;20156;-91
2022/06/10 06:16:14;;;;;;;17.30;10.25;;;20.30;99.90;;;;;;6188988;23;20160;-92
2022/06/10 06:18:51;;;;;;;15.27;9.45;;;20.40;99.90;;;;;;6215992;23;20332;-93
2022/06/10 06:21:20;;;;;;;17.48;11.27;;;;;;;;;;6183274;23;20161;-92
2022/06/10 06:23:46;;;;;;;18.58;10.95;;;;;;;;;;6195187;23;20156;-90
2022/06/10 06:26:17;;;;;;;17.92;10.40;;;20.60;99.90;;;;;;6184762;23;20259;-90
2022/06/10 06:28:43;;;;;;;18.40;11.35;;;;;;;;;;6163520;23;20164;-91
2022/06/10 06:31:20;;;;;;;;;;;;;;;;;;;;;
2022/06/10 06:33:55;;;;;;;21.50;10.50;;;;;;;;;;6218881;23;20224;-92
2022/06/10 06:36:29;;;;;;;16.92;10.55;;;20.90;99.90;;;;;;6172522;23;20167;-92
2022/06/10 06:39:00;;;;;;;18.80;10.82;;;21.10;99.90;;;;;;6190739;23;20151;-90
2022/06/10 06:41:28;;;;;;;15.85;10.40;;;;;;;;;;6192663;23;20182;-92
2022/06/10 06:43:54;;;;;;;15.27;9.88;;;;;;;;;;6217003;23;20198;-93
2022/06/10 06:46:20;;;;;;;14.82;9.00;;;;;;;;;;6188933;23;20207;-92
2022/06/10 06:48:46;;;;;;;18.27;11.40;;;21.10;99.90;;;;;;6215900;23;20199;-91
2022/06/10 06:51:12;;;;;;;15.43;10.93;;;21.10;99.90;;;;;;6191104;23;20159;-92
2022/06/10 06:53:38;;;;;;;18.45;10.50;;;;;;;;;;6168259;23;20163;-92
2022/06/10 06:56:05;;;;;;;17.88;10.20;;;21.30;99.90;;;;;;6219362;23;20576;-91
2022/06/10 06:58:33;;;;;;;17.27;10.10;;;21.50;99.90;;;;;;6220432;23;20159;-92
2022/06/10 07:01:01;;;;;;;15.05;9.82;;;;;;;;;;6173765;23;20156;-92
2022/06/10 07:03:27;;;;;;;15.50;9.93;;;;;;;;;;6207598;23;20167;-91
2022/06/10 07:05:53;;;;;;;15.35;9.00;;;21.70;99.90;;;;;;6213506;23;20258;-91
2022/06/10 07:08:21;;;;;;;15.40;10.57;;;21.70;99.90;;;;;;6217669;23;20153;-91
2022/06/10 07:10:47;;;;;;;12.93;8.90;;;;;;;;;;6241834;23;20155;-90
2022/06/10 07:13:26;;;;;;;;;;;;;;;;;;;;;
2022/06/10 07:16:10;;;;;;;13.48;8.23;;;22.00;99.90;;;;;;6235067;23;20155;-91
2022/06/10 07:18:42;;;;;;;14.10;9.40;;;22.30;99.90;;;;;;6216530;23;20156;-90
2022/06/10 07:21:10;;;;;;;18.25;10.95;;;22.30;99.90;;;;;;6215466;23;20167;-91
2022/06/10 07:23:36;;;;;;;15.32;9.40;;;;;;;;;;6187184;23;20186;-92
2022/06/10 07:26:04;;;;;;;22.98;10.38;;;22.40;99.90;;;;;;6215922;23;20183;-92
2022/06/10 07:28:32;;;;;;;15.05;10.18;;;22.30;99.90;;;;;;6218451;23;20156;-93
2022/06/10 07:31:00;;;;;;;18.33;11.10;;;22.20;99.90;;;;;;6219219;23;20152;-92
2022/06/10 07:33:26;;;;;;;18.55;11.27;;;;;;;;;;6215011;23;20175;-92
2022/06/10 07:36:06;;;;;;;21.70;11.75;;;22.20;99.90;;;;;;6203306;23;20184;-92
2022/06/10 07:38:35;;;;;;;19.42;11.13;;;;;;;;;;6175142;23;20167;-92
2022/06/10 07:43:46;;;;;;;18.63;12.05;;;;;;;;;;6211528;23;20163;-91
2022/06/10 07:46:17;;;;;;;18.80;11.90;;;21.90;99.90;;;;;;6241031;23;20191;-92
2022/06/10 07:48:46;;;;;;;20.90;12.90;;;;;;;;;;6237393;23;20207;-90
2022/06/10 07:51:12;;;;;;;22.27;13.07;;;;;;;;;;6221575;23;20163;-93
2022/06/10 07:53:40;;;;;;;21.48;13.63;;;;;;;;;;6220026;23;20148;-94
2022/06/10 07:56:13;;;;;;;24.92;15.60;;;21.70;99.90;;;;;;6219337;23;20156;-93
2022/06/10 07:58:39;;;;;;;29.50;15.52;;;21.70;99.90;;;;;;6194199;23;20182;-93
2022/06/10 08:01:06;;;;;;;30.08;16.33;;;;;;;;;;6194832;23;20179;-94
2022/06/10 08:03:34;;;;;;;33.40;18.08;;;21.60;99.90;;;;;;6222863;23;20510;-95
2022/06/10 08:06:03;;;;;;;31.02;17.38;;;21.70;99.90;;;;;;6211285;23;20191;-93
2022/06/10 08:08:29;;;;;;;30.02;17.98;;;;;;;;;;6234972;23;20148;-94
2022/06/10 08:10:58;;;;;;;28.45;15.15;;;;;;;;;;6195880;23;20530;-95
2022/06/10 08:13:26;;;;;;;26.50;15.70;;;;;;;;;;6221006;23;20227;-93
2022/06/10 08:15:55;;;;;;;26.50;14.93;;;;;;;;;;6201744;23;20164;-91
2022/06/10 08:18:24;;;;;;;30.23;18.65;;;22.00;99.90;;;;;;6232179;23;20152;-91
2022/06/10 08:23:35;;;;;;;24.70;13.20;;;22.00;99.90;;;;;;6221921;23;20154;-92
2022/06/10 08:26:05;;;;;;;24.17;14.15;;;22.20;99.90;;;;;;6167420;23;20263;-91
2022/06/10 08:28:45;;;;;;;;;;;;;;;;;;;;;
2022/06/10 08:31:16;;;;;;;22.38;12.35;;;22.10;99.90;;;;;;6232957;23;20179;-93
2022/06/10 08:33:42;;;;;;;21.15;12.45;;;;;;;;;;6236431;23;20136;-94
2022/06/10 08:36:09;;;;;;;20.52;12.20;;;22.00;99.90;;;;;;6201035;23;20203;-92
2022/06/10 08:38:35;;;;;;;23.33;11.75;;;;;;;;;;6220046;23;20602;-91
2022/06/10 08:41:15;;;;;;;20.13;12.25;;;22.20;99.90;;;;;;6192182;23;20155;-91
2022/06/10 08:44:17;;;;;;;19.58;11.38;;;22.20;99.90;;;;;;6195833;23;20231;-93
2022/06/10 08:47:21;;;;;;;19.38;11.13;;;22.20;99.90;;;;;;6204997;23;20171;-90
2022/06/10 08:50:14;;;;;;;20.55;10.85;;;22.10;99.90;;;;;;6202997;23;20166;-92
2022/06/10 08:53:00;;;;;;;19.10;11.98;;;21.80;99.90;;;;;;6200950;23;20156;-93
2022/06/10 08:55:57;;;;;;;19.80;11.55;;;21.90;99.90;;;;;;6201129;23;20642;-92
2022/06/10 08:58:53;;;;;;;19.75;12.05;;;22.10;99.90;;;;;;6205197;23;20152;-93
2022/06/10 09:01:31;;;;;;;18.08;11.35;;;22.00;99.90;;;;;;6224435;23;20144;-92
2022/06/10 09:04:16;;;;;;;18.75;11.20;;;21.10;99.90;;;;;;6244267;23;20117;-91
2022/06/10 09:06:53;;;;;;;18.60;10.73;;;21.90;99.90;;;;;;6232028;23;20205;-93
2022/06/10 09:09:24;;;;;;;26.15;12.55;;;21.90;99.90;;;;;;6229956;23;20190;-93
2022/06/10 09:12:15;;;;;;;22.60;11.57;;;21.80;99.90;;;;;;6232089;23;20223;-95
2022/06/10 09:14:46;;;;;;;24.50;12.13;;;21.50;99.90;;;;;;6184748;23;20164;-94
2022/06/10 09:17:34;;;;;;;23.67;13.07;;;21.60;99.90;;;;;;6173903;23;20176;-92
2022/06/10 09:20:16;;;;;;;27.00;13.73;;;21.70;99.90;;;;;;6217827;23;20376;-93
2022/06/10 09:22:42;;;;;;;27.25;13.70;;;;;;;;;;6217987;23;20133;-94
2022/06/10 09:25:31;;;;;;;22.88;12.88;;;21.50;99.90;;;;;;6191174;23;20267;-93
2022/06/10 09:28:06;;;;;;;26.95;13.75;;;21.60;99.90;;;;;;6192033;23;20625;-94
2022/06/10 09:30:56;;;;;;;32.88;16.02;;;21.50;99.90;;;;;;6191212;23;20533;-93
2022/06/10 09:33:31;;;;;;;29.67;16.42;;;21.60;99.90;;;;;;6192634;23;20152;-93
2022/06/10 09:36:19;;;;;;;37.47;17.73;;;21.80;99.90;;;;;;6202279;23;20230;-92
2022/06/10 09:42:23;;;;;;;39.20;19.65;;;22.10;99.90;;;;;;6169463;23;20236;-94
2022/06/10 09:45:04;;;;;;;39.08;19.48;;;22.20;99.90;;;;;;6200046;23;20191;-93
2022/06/10 09:47:45;;;;;;;45.10;21.52;;;22.40;99.90;;;;;;6200847;23;20769;-91
2022/06/10 09:50:31;;;;;;;50.47;23.60;;;22.20;99.90;;;;;;6203230;23;20217;-92
2022/06/10 09:53:19;;;;;;;47.78;22.50;;;22.40;99.90;;;;;;6202806;23;20178;-92
2022/06/10 09:56:19;;;;;;;47.85;22.73;;;22.40;99.90;;;;;;6229323;23;20166;-93
2022/06/10 09:59:09;;;;;;;49.10;23.83;;;22.60;99.90;;;;;;6201868;23;20156;-92
2022/06/10 10:02:13;;;;;;;47.03;23.45;;;22.80;99.90;;;;;;6199752;23;20148;-93
2022/06/10 10:05:07;;;;;;;51.08;23.50;;;23.00;99.90;;;;;;6185535;23;20188;-92
2022/06/10 10:07:42;;;;;;;44.90;22.48;;;23.00;99.90;;;;;;6202223;23;20156;-93
2022/06/10 10:10:19;;;;;;;45.95;24.25;;;23.20;99.90;;;;;;6201080;23;20148;-93
2022/06/10 10:13:10;;;;;;;46.55;23.08;;;22.60;99.90;;;;;;6201686;23;20155;-94
2022/06/10 10:15:49;;;;;;;49.17;23.58;;;23.30;99.90;;;;;;6191601;23;20160;-93
2022/06/10 10:18:20;;;;;;;47.00;23.02;;;23.20;99.90;;;;;;6190951;23;20165;-93
2022/06/10 10:21:08;;;;;;;47.33;23.30;;;23.90;99.90;;;;;;6191642;23;20214;-93
2022/06/10 10:23:39;;;;;;;45.70;22.67;;;23.20;99.90;;;;;;6191158;23;20209;-93
2022/06/10 10:26:11;;;;;;;43.83;22.20;;;23.50;99.90;;;;;;6191900;23;20179;-93
2022/06/10 10:28:41;;;;;;;51.53;24.73;;;23.70;99.90;;;;;;6208718;23;20155;-94
2022/06/10 10:31:09;;;;;;;41.65;22.20;;;23.60;99.90;;;;;;6190676;23;20152;-91
2022/06/10 10:33:36;;;;;;;47.95;24.27;;;;;;;;;;6214522;23;20156;-93
2022/06/10 10:36:10;;;;;;;42.47;22.67;;;23.60;99.90;;;;;;6209445;23;20188;-90
2022/06/10 10:38:43;;;;;;;40.67;21.30;;;23.60;99.90;;;;;;6202847;23;20563;-91
2022/06/10 10:41:27;;;;;;;38.70;20.65;;;23.70;99.90;;;;;;6218485;23;20198;-91
2022/06/10 10:43:57;;;;;;;40.35;20.85;;;23.80;99.90;;;;;;6191203;23;20572;-93
2022/06/10 10:46:23;;;;;;;38.80;21.00;;;;;;;;;;6219245;23;20182;-93
2022/06/10 10:48:49;;;;;;;37.35;19.50;;;;;;;;;;6191965;23;20227;-90
2022/06/10 10:51:30;;;;;;;41.45;24.83;;;23.80;99.90;;;;;;6222291;23;20155;-93
2022/06/10 10:54:12;;;;;;;34.33;19.15;;;23.80;99.90;;;;;;6225674;23;20136;-92
2022/06/10 10:56:40;;;;;;;33.50;18.77;;;23.70;99.90;;;;;;6200192;23;20152;-91
2022/06/10 10:59:28;;;;;;;33.63;19.50;;;23.60;99.90;;;;;;6201077;23;20151;-88
2022/06/10 11:01:54;;;;;;;33.72;20.13;;;;;;;;;;6203208;23;20167;-89
2022/06/10 11:04:36;;;;;;;35.17;19.08;;;23.10;99.90;;;;;;6203319;23;20263;-89
2022/06/10 11:07:25;;;;;;;39.05;21.70;;;23.30;99.90;;;;;;6202222;23;20159;-92
2022/06/10 11:09:55;;;;;;;33.80;19.33;;;23.50;99.90;;;;;;6211826;23;20168;-93
2022/06/10 11:12:27;;;;;;;35.38;21.05;;;23.80;99.90;;;;;;6211317;23;20171;-91
2022/06/10 11:15:03;;;;;;;36.75;21.63;;;24.00;99.90;;;;;;6203174;23;20190;-91
2022/06/10 11:17:32;;;;;;;34.63;20.40;;;24.10;99.90;;;;;;6203531;23;20245;-91
2022/06/10 11:20:14;;;;;;;33.90;20.70;;;24.30;99.90;;;;;;6221427;23;20180;-91
2022/06/10 11:22:40;;;;;;;33.10;19.52;;;;;;;;;;6224000;23;20254;-91
2022/06/10 11:25:14;;;;;;;34.00;20.15;;;;;;;;;;6200042;23;20192;-92
2022/06/10 11:27:55;;;;;;;27.75;18.63;;;24.80;99.90;;;;;;6197016;23;20156;-95
2022/06/10 11:30:22;;;;;;;29.88;19.17;;;24.90;99.90;;;;;;6196985;23;20210;-91
2022/06/10 11:32:48;;;;;;;31.17;19.65;;;24.80;99.90;;;;;;6198194;23;20191;-92
2022/06/10 11:35:23;;;;;;;32.15;18.95;;;24.90;99.90;;;;;;6198096;23;20194;-91
2022/06/10 11:37:53;;;;;;;31.92;19.52;;;24.90;99.90;;;;;;6195653;23;20156;-90
2022/06/10 11:40:34;;;;;;;28.27;17.73;;;25.00;99.90;;;;;;6192841;23;20588;-94
2022/06/10 11:43:12;;;;;;;24.63;16.67;;;25.30;99.90;;;;;;6191515;23;20217;-91
2022/06/10 11:46:24;;;;;;;23.58;14.18;;;25.30;99.90;;;;;;6190803;23;20544;-93
2022/06/10 11:49:14;;;;;;;26.10;17.50;;;25.50;99.90;;;;;;6190539;23;20634;-92
2022/06/10 11:51:52;;;;;;;26.73;16.60;;;25.50;99.90;;;;;;6191504;23;20152;-92
2022/06/10 11:54:18;;;;;;;26.00;16.58;;;;;;;;;;6217569;23;20148;-91
2022/06/10 11:59:56;;;;;;;24.63;16.02;;;25.50;99.90;;;;;;6219145;23;20155;-90
2022/06/10 12:02:32;;;;;;;24.77;16.48;;;25.40;99.90;;;;;;6218505;23;20602;-92
2022/06/10 12:05:21;;;;;;;23.33;15.80;;;25.30;99.90;;;;;;6196607;23;20187;-92
2022/06/10 12:08:02;;;;;;;26.02;16.13;;;25.30;99.90;;;;;;6195076;23;20152;-91
2022/06/10 12:10:35;;;;;;;24.38;15.55;;;25.20;99.90;;;;;;6221594;23;20179;-92
2022/06/10 12:13:01;;;;;;;26.80;14.60;;;;;;;;;;6201760;23;20144;-92
2022/06/10 12:15:38;;;;;;;23.10;13.80;;;24.90;99.90;;;;;;6234982;23;20190;-88
2022/06/10 12:18:09;;;;;;;18.52;13.32;;;24.80;99.90;;;;;;6208294;23;20155;-91
2022/06/10 12:20:42;;;;;;;22.10;13.75;;;24.80;99.90;;;;;;6223917;23;20136;-93
2022/06/10 12:23:14;;;;;;;15.90;11.23;;;24.90;99.90;;;;;;6224199;23;20148;-93
2022/06/10 12:25:57;;;;;;;19.23;13.10;;;24.90;99.90;;;;;;6222207;23;20191;-92
2022/06/10 12:28:54;;;;;;;20.52;12.88;;;24.90;99.90;;;;;;6224443;23;20147;-92
2022/06/10 12:31:35;;;;;;;22.02;13.68;;;24.70;99.90;;;;;;6198618;23;20156;-92
2022/06/10 12:34:18;;;;;;;21.15;14.00;;;24.70;99.90;;;;;;6198872;23;20155;-93
2022/06/10 12:36:51;;;;;;;15.73;10.73;;;24.90;99.90;;;;;;6205115;23;20528;-94
2022/06/10 12:39:47;;;;;;;16.27;11.70;;;24.90;99.90;;;;;;6197671;23;20160;-93
2022/06/10 12:42:33;;;;;;;16.58;11.07;;;24.80;99.90;;;;;;6191131;23;20505;-92
2022/06/10 12:45:03;;;;;;;16.92;11.35;;;25.40;99.90;;;;;;6203589;23;20261;-91
2022/06/10 12:47:39;;;;;;;16.10;10.82;;;25.50;99.90;;;;;;6199734;23;20207;-93
2022/06/10 12:50:16;;;;;;;16.30;11.35;;;25.50;99.90;;;;;;6203425;23;20167;-93
2022/06/10 12:53:10;;;;;;;16.58;11.25;;;25.70;99.90;;;;;;6203030;23;20646;-93
2022/06/10 12:55:47;;;;;;;16.00;10.65;;;25.50;99.90;;;;;;6206036;23;20232;-91
2022/06/10 12:58:37;;;;;;;14.50;10.23;;;26.20;99.90;;;;;;6207356;23;20148;-93
2022/06/10 13:01:27;;;;;;;13.93;10.23;;;26.00;99.90;;;;;;6205517;23;20157;-93
2022/06/10 13:04:13;;;;;;;11.82;8.85;;;26.00;99.90;;;;;;6200135;23;20180;-93
2022/06/10 13:06:41;;;;;;;13.40;9.32;;;25.90;99.90;;;;;;6200115;23;20168;-93
2022/06/10 13:09:19;;;;;;;11.80;8.23;;;25.90;99.90;;;;;;6191060;23;20156;-93
2022/06/10 13:12:00;;;;;;;12.52;8.57;;;25.80;99.90;;;;;;6199112;23;20156;-94
2022/06/10 13:14:34;;;;;;;12.65;8.00;;;;;;;;;;6196402;23;20171;-94
2022/06/10 13:17:00;;;;;;;11.13;8.05;;;;;;;;;;6198308;23;20160;-94
2022/06/10 13:19:40;;;;;;;11.43;8.18;;;25.90;99.90;;;;;;6199005;23;20157;-94
2022/06/10 13:22:36;;;;;;;10.80;7.55;;;25.90;99.90;;;;;;6201779;23;20218;-95
2022/06/10 13:25:02;;;;;;;10.20;7.30;;;;;;;;;;6192943;23;20188;-94
2022/06/10 13:27:28;;;;;;;11.30;7.72;;;;;;;;;;6199753;23;20161;-93
2022/06/10 13:30:11;;;;;;;9.55;7.03;;;26.00;99.90;;;;;;6197993;23;20161;-93
2022/06/10 13:32:55;;;;;;;9.63;6.85;;;26.20;99.90;;;;;;6199366;23;20500;-94
2022/06/10 13:35:30;;;;;;;9.38;7.22;;;26.20;99.90;;;;;;6206978;23;20171;-93
2022/06/10 13:38:19;;;;;;;8.90;6.32;;;26.20;99.90;;;;;;6205038;23;20167;-96
2022/06/10 13:43:41;;;;;;;8.10;7.18;;;26.40;99.90;;;;;;6159528;23;20161;-94
2022/06/10 13:46:17;;;;;;;7.80;5.53;;;26.50;99.90;;;;;;6197445;23;20188;-95
2022/06/10 13:48:43;;;;;;;7.47;5.78;;;;;;;;;;6204867;23;20227;-94
2022/06/10 13:51:27;;;;;;;7.78;6.18;;;26.90;99.90;;;;;;6174817;23;20165;-94
2022/06/10 13:54:10;;;;;;;7.90;5.57;;;26.80;99.90;;;;;;6189334;23;20156;-95